sensor_id;sensor_type;location;lat;lon;timestamp;P1;durP1;ratioP1;P2;durP2;ratioP2
63955;SDS011;50131;52.084;5.228;2022-07-29T00:02:32;8.31;;;7.6;;
63955;SDS011;50131;52.084;5.228;2022-07-29T00:04:19;8.6;;;8.1;;
63955;SDS011;50131;52.084;5.228;2022-07-29T00:06:06;9.1;;;8.5;;
63955;SDS011;50131;52.084;5.228;2022-07-29T00:07:53;7.7;;;7.2;;
63955;SDS011;50131;52.084;5.228;2022-07-29T00:09:40;9.6;;;8.9;;
63955;SDS011;50131;52.084;5.228;2022-07-29T00:11:27;8.4;;;7.7;;
63955;SDS011;50131;52.084;5.228;2022-07-29T00:15:01;6.7;;;6.1;;
63955;SDS011;50131;52.084;5.228;2022-07-29T00:16:48;8.2;;;7.6;;
63955;SDS011;50131;52.084;5.228;2022-07-29T00:18:34;8.1;;;7.4;;
63955;SDS011;50131;52.084;5.228;2022-07-29T00:20:20;7.8;;;7.2;;
63955;SDS011;50131;52.084;5.228;2022-07-29T00:22:06;7.8;;;7.2;;
63955;SDS011;50131;52.084;5.228;2022-07-29T00:23:53;8.2;;;7.5;;
63955;SDS011;50131;52.084;5.228;2022-07-29T00:27:26;6.4;;;5.9;;
63955;SDS011;50131;52.084;5.228;2022-07-29T00:29:12;5.0;;;4.2;;
63955;SDS011;50131;52.084;5.228;2022-07-29T00:30:58;4.8;;;4.3;;
63955;SDS011;50131;52.084;5.228;2022-07-29T00:32:44;6.0;;;5.6;;
63955;SDS011;50131;52.084;5.228;2022-07-29T00:37:33;6.4;;;6.0;;
63955;SDS011;50131;52.084;5.228;2022-07-29T00:39:19;5.7;;;5.3;;
63955;SDS011;50131;52.084;5.228;2022-07-29T00:41:05;8.1;;;7.4;;
63955;SDS011;50131;52.084;5.228;2022-07-29T00:42:51;5.8;;;5.5;;
63955;SDS011;50131;52.084;5.228;2022-07-29T00:46:25;4.61;;;4.2;;
63955;SDS011;50131;52.084;5.228;2022-07-29T00:48:12;6.0;;;5.5;;
63955;SDS011;50131;52.084;5.228;2022-07-29T00:49:59;4.91;;;4.5;;
63955;SDS011;50131;52.084;5.228;2022-07-29T00:51:46;5.8;;;5.4;;
63955;SDS011;50131;52.084;5.228;2022-07-29T00:53:35;6.4;;;5.0;;
63955;SDS011;50131;52.084;5.228;2022-07-29T00:55:22;4.7;;;4.3;;
63955;SDS011;50131;52.084;5.228;2022-07-29T00:58:57;5.11;;;4.41;;
63955;SDS011;50131;52.084;5.228;2022-07-29T01:00:44;5.9;;;5.4;;
63955;SDS011;50131;52.084;5.228;2022-07-29T01:02:31;4.61;;;4.2;;
63955;SDS011;50131;52.084;5.228;2022-07-29T01:04:18;4.1;;;3.3;;
63955;SDS011;50131;52.084;5.228;2022-07-29T01:06:05;4.91;;;3.5;;
63955;SDS011;50131;52.084;5.228;2022-07-29T01:07:53;4.0;;;2.0;;
63955;SDS011;50131;52.084;5.228;2022-07-29T01:11:32;2.5;;;1.4;;
63955;SDS011;50131;52.084;5.228;2022-07-29T01:13:20;3.9;;;1.8;;
63955;SDS011;50131;52.084;5.228;2022-07-29T01:15:07;4.0;;;2.4;;
63955;SDS011;50131;52.084;5.228;2022-07-29T01:17:00;3.6;;;2.4;;
63955;SDS011;50131;52.084;5.228;2022-07-29T01:19:00;3.1;;;2.8;;
63955;SDS011;50131;52.084;5.228;2022-07-29T01:21:08;4.61;;;2.8;;
63955;SDS011;50131;52.084;5.228;2022-07-29T01:24:11;3.3;;;2.7;;
63955;SDS011;50131;52.084;5.228;2022-07-29T01:26:49;4.7;;;2.9;;
63955;SDS011;50131;52.084;5.228;2022-07-29T01:30:45;3.2;;;2.21;;
63955;SDS011;50131;52.084;5.228;2022-07-29T01:32:37;3.1;;;2.5;;
63955;SDS011;50131;52.084;5.228;2022-07-29T01:34:27;4.91;;;1.6;;
63955;SDS011;50131;52.084;5.228;2022-07-29T01:36:22;2.4;;;2.0;;
63955;SDS011;50131;52.084;5.228;2022-07-29T01:38:15;3.9;;;2.6;;
63955;SDS011;50131;52.084;5.228;2022-07-29T01:40:07;4.5;;;2.31;;
63955;SDS011;50131;52.084;5.228;2022-07-29T01:42:10;3.4;;;2.21;;
63955;SDS011;50131;52.084;5.228;2022-07-29T01:44:02;3.7;;;2.1;;
63955;SDS011;50131;52.084;5.228;2022-07-29T01:46:01;2.9;;;2.0;;
63955;SDS011;50131;52.084;5.228;2022-07-29T01:47:54;3.4;;;2.21;;
63955;SDS011;50131;52.084;5.228;2022-07-29T01:49:50;3.9;;;2.31;;
63955;SDS011;50131;52.084;5.228;2022-07-29T01:53:37;3.1;;;2.21;;
63955;SDS011;50131;52.084;5.228;2022-07-29T01:55:38;4.0;;;2.7;;
63955;SDS011;50131;52.084;5.228;2022-07-29T01:57:30;4.3;;;2.31;;
63955;SDS011;50131;52.084;5.228;2022-07-29T01:59:19;2.31;;;2.1;;
63955;SDS011;50131;52.084;5.228;2022-07-29T02:01:07;4.0;;;2.31;;
63955;SDS011;50131;52.084;5.228;2022-07-29T02:02:56;3.8;;;2.1;;
63955;SDS011;50131;52.084;5.228;2022-07-29T02:04:48;2.9;;;2.1;;
63955;SDS011;50131;52.084;5.228;2022-07-29T02:06:37;3.8;;;2.21;;
63955;SDS011;50131;52.084;5.228;2022-07-29T02:10:16;3.3;;;2.7;;
63955;SDS011;50131;52.084;5.228;2022-07-29T02:12:08;4.1;;;2.31;;
63955;SDS011;50131;52.084;5.228;2022-07-29T02:13:58;2.4;;;2.21;;
63955;SDS011;50131;52.084;5.228;2022-07-29T02:15:47;3.1;;;2.5;;
63955;SDS011;50131;52.084;5.228;2022-07-29T02:17:38;3.8;;;2.7;;
63955;SDS011;50131;52.084;5.228;2022-07-29T02:19:30;3.3;;;2.21;;
63955;SDS011;50131;52.084;5.228;2022-07-29T02:21:19;3.4;;;2.6;;
63955;SDS011;50131;52.084;5.228;2022-07-29T02:23:10;3.4;;;2.6;;
63955;SDS011;50131;52.084;5.228;2022-07-29T02:26:47;2.4;;;2.21;;
63955;SDS011;50131;52.084;5.228;2022-07-29T02:28:36;3.3;;;2.4;;
63955;SDS011;50131;52.084;5.228;2022-07-29T02:30:23;5.3;;;2.4;;
63955;SDS011;50131;52.084;5.228;2022-07-29T02:32:11;5.0;;;3.0;;
63955;SDS011;50131;52.084;5.228;2022-07-29T02:34:02;3.9;;;3.0;;
63955;SDS011;50131;52.084;5.228;2022-07-29T02:35:52;3.2;;;2.8;;
63955;SDS011;50131;52.084;5.228;2022-07-29T02:39:29;4.1;;;2.7;;
63955;SDS011;50131;52.084;5.228;2022-07-29T02:41:19;4.0;;;3.3;;
63955;SDS011;50131;52.084;5.228;2022-07-29T02:43:08;3.9;;;3.0;;
63955;SDS011;50131;52.084;5.228;2022-07-29T02:44:56;4.3;;;3.1;;
63955;SDS011;50131;52.084;5.228;2022-07-29T02:46:45;4.1;;;2.6;;
63955;SDS011;50131;52.084;5.228;2022-07-29T02:48:37;3.2;;;2.4;;
63955;SDS011;50131;52.084;5.228;2022-07-29T02:50:29;5.11;;;3.9;;
63955;SDS011;50131;52.084;5.228;2022-07-29T02:54:16;6.2;;;3.3;;
63955;SDS011;50131;52.084;5.228;2022-07-29T02:56:10;5.3;;;3.6;;
63955;SDS011;50131;52.084;5.228;2022-07-29T02:58:01;3.7;;;3.0;;
63955;SDS011;50131;52.084;5.228;2022-07-29T02:59:52;4.3;;;3.9;;
63955;SDS011;50131;52.084;5.228;2022-07-29T03:01:43;5.2;;;2.8;;
63955;SDS011;50131;52.084;5.228;2022-07-29T03:03:32;4.3;;;4.0;;
63955;SDS011;50131;52.084;5.228;2022-07-29T03:05:21;5.5;;;4.91;;
63955;SDS011;50131;52.084;5.228;2022-07-29T03:07:08;5.4;;;5.0;;
63955;SDS011;50131;52.084;5.228;2022-07-29T03:10:47;6.6;;;6.0;;
63955;SDS011;50131;52.084;5.228;2022-07-29T03:12:34;6.0;;;5.5;;
63955;SDS011;50131;52.084;5.228;2022-07-29T03:14:22;3.7;;;3.4;;
63955;SDS011;50131;52.084;5.228;2022-07-29T03:16:10;4.0;;;3.7;;
63955;SDS011;50131;52.084;5.228;2022-07-29T03:17:59;5.7;;;5.2;;
63955;SDS011;50131;52.084;5.228;2022-07-29T03:19:45;6.1;;;5.6;;
63955;SDS011;50131;52.084;5.228;2022-07-29T03:23:22;4.2;;;3.8;;
63955;SDS011;50131;52.084;5.228;2022-07-29T03:25:10;6.1;;;5.7;;
63955;SDS011;50131;52.084;5.228;2022-07-29T03:26:59;5.7;;;5.2;;
63955;SDS011;50131;52.084;5.228;2022-07-29T03:28:46;5.7;;;5.2;;
63955;SDS011;50131;52.084;5.228;2022-07-29T03:30:33;5.0;;;4.5;;
63955;SDS011;50131;52.084;5.228;2022-07-29T03:32:19;4.91;;;4.2;;
63955;SDS011;50131;52.084;5.228;2022-07-29T03:35:52;4.5;;;4.1;;
63955;SDS011;50131;52.084;5.228;2022-07-29T03:37:38;6.4;;;5.11;;
63955;SDS011;50131;52.084;5.228;2022-07-29T03:39:25;4.8;;;3.0;;
63955;SDS011;50131;52.084;5.228;2022-07-29T03:41:16;4.2;;;3.9;;
63955;SDS011;50131;52.084;5.228;2022-07-29T03:43:05;4.1;;;3.7;;
63955;SDS011;50131;52.084;5.228;2022-07-29T03:44:56;6.4;;;3.8;;
63955;SDS011;50131;52.084;5.228;2022-07-29T03:48:35;5.0;;;4.5;;
63955;SDS011;50131;52.084;5.228;2022-07-29T03:50:25;6.4;;;5.8;;
63955;SDS011;50131;52.084;5.228;2022-07-29T03:52:12;6.0;;;5.5;;
63955;SDS011;50131;52.084;5.228;2022-07-29T03:54:00;5.11;;;4.7;;
63955;SDS011;50131;52.084;5.228;2022-07-29T03:55:48;5.9;;;5.4;;
63955;SDS011;50131;52.084;5.228;2022-07-29T03:57:40;6.0;;;5.3;;
63955;SDS011;50131;52.084;5.228;2022-07-29T03:59:28;6.1;;;5.6;;
63955;SDS011;50131;52.084;5.228;2022-07-29T04:03:06;5.4;;;5.0;;
63955;SDS011;50131;52.084;5.228;2022-07-29T04:04:54;6.0;;;5.5;;
63955;SDS011;50131;52.084;5.228;2022-07-29T04:06:42;6.4;;;6.0;;
63955;SDS011;50131;52.084;5.228;2022-07-29T04:08:31;4.5;;;4.0;;
63955;SDS011;50131;52.084;5.228;2022-07-29T04:10:19;5.11;;;4.41;;
63955;SDS011;50131;52.084;5.228;2022-07-29T04:12:05;5.0;;;4.61;;
63955;SDS011;50131;52.084;5.228;2022-07-29T04:15:38;6.6;;;4.7;;
63955;SDS011;50131;52.084;5.228;2022-07-29T04:17:25;6.3;;;5.5;;
63955;SDS011;50131;52.084;5.228;2022-07-29T04:19:11;5.4;;;5.0;;
63955;SDS011;50131;52.084;5.228;2022-07-29T04:21:00;6.1;;;5.5;;
63955;SDS011;50131;52.084;5.228;2022-07-29T04:22:47;5.3;;;4.8;;
63955;SDS011;50131;52.084;5.228;2022-07-29T04:24:34;5.3;;;4.8;;
63955;SDS011;50131;52.084;5.228;2022-07-29T04:28:08;5.11;;;4.41;;
63955;SDS011;50131;52.084;5.228;2022-07-29T04:29:56;7.3;;;6.6;;
63955;SDS011;50131;52.084;5.228;2022-07-29T04:31:42;5.8;;;5.3;;
63955;SDS011;50131;52.084;5.228;2022-07-29T04:33:29;8.5;;;7.7;;
63955;SDS011;50131;52.084;5.228;2022-07-29T04:35:15;7.1;;;6.5;;
63955;SDS011;50131;52.084;5.228;2022-07-29T04:37:01;6.8;;;6.2;;
63955;SDS011;50131;52.084;5.228;2022-07-29T04:40:36;6.0;;;5.4;;
63955;SDS011;50131;52.084;5.228;2022-07-29T04:42:22;5.2;;;4.7;;
63955;SDS011;50131;52.084;5.228;2022-07-29T04:44:08;6.4;;;5.9;;
63955;SDS011;50131;52.084;5.228;2022-07-29T04:45:54;7.3;;;6.5;;
63955;SDS011;50131;52.084;5.228;2022-07-29T04:47:40;6.0;;;5.4;;
63955;SDS011;50131;52.084;5.228;2022-07-29T04:51:14;7.6;;;7.0;;
63955;SDS011;50131;52.084;5.228;2022-07-29T04:53:02;6.1;;;5.6;;
63955;SDS011;50131;52.084;5.228;2022-07-29T04:54:48;7.9;;;7.3;;
63955;SDS011;50131;52.084;5.228;2022-07-29T04:56:35;6.4;;;5.9;;
63955;SDS011;50131;52.084;5.228;2022-07-29T04:58:23;4.2;;;3.8;;
63955;SDS011;50131;52.084;5.228;2022-07-29T05:00:10;6.6;;;6.0;;
63955;SDS011;50131;52.084;5.228;2022-07-29T05:03:44;7.2;;;6.6;;
63955;SDS011;50131;52.084;5.228;2022-07-29T05:05:30;5.9;;;5.4;;
63955;SDS011;50131;52.084;5.228;2022-07-29T05:07:17;6.3;;;5.0;;
63955;SDS011;50131;52.084;5.228;2022-07-29T05:09:03;7.0;;;6.3;;
63955;SDS011;50131;52.084;5.228;2022-07-29T05:10:50;7.0;;;6.3;;
63955;SDS011;50131;52.084;5.228;2022-07-29T05:12:37;7.3;;;6.8;;
63955;SDS011;50131;52.084;5.228;2022-07-29T05:16:10;5.4;;;4.61;;
63955;SDS011;50131;52.084;5.228;2022-07-29T05:17:56;7.4;;;6.8;;
63955;SDS011;50131;52.084;5.228;2022-07-29T05:19:42;7.4;;;6.3;;
63955;SDS011;50131;52.084;5.228;2022-07-29T05:21:29;6.0;;;5.4;;
63955;SDS011;50131;52.084;5.228;2022-07-29T05:23:16;8.0;;;7.3;;
63955;SDS011;50131;52.084;5.228;2022-07-29T05:26:50;5.0;;;4.61;;
63955;SDS011;50131;52.084;5.228;2022-07-29T05:28:36;5.8;;;5.4;;
63955;SDS011;50131;52.084;5.228;2022-07-29T05:30:23;6.8;;;6.3;;
63955;SDS011;50131;52.084;5.228;2022-07-29T05:32:10;7.1;;;6.5;;
63955;SDS011;50131;52.084;5.228;2022-07-29T05:33:58;7.4;;;6.7;;
63955;SDS011;50131;52.084;5.228;2022-07-29T05:35:44;6.4;;;5.8;;
63955;SDS011;50131;52.084;5.228;2022-07-29T05:39:17;6.3;;;5.7;;
63955;SDS011;50131;52.084;5.228;2022-07-29T05:41:03;6.1;;;5.6;;
63955;SDS011;50131;52.084;5.228;2022-07-29T05:42:50;6.2;;;5.7;;
63955;SDS011;50131;52.084;5.228;2022-07-29T05:44:38;6.7;;;6.2;;
63955;SDS011;50131;52.084;5.228;2022-07-29T05:46:25;5.2;;;4.7;;
63955;SDS011;50131;52.084;5.228;2022-07-29T05:48:12;6.7;;;6.2;;
63955;SDS011;50131;52.084;5.228;2022-07-29T05:51:44;7.1;;;6.5;;
63955;SDS011;50131;52.084;5.228;2022-07-29T05:53:30;5.3;;;4.8;;
63955;SDS011;50131;52.084;5.228;2022-07-29T05:55:17;6.0;;;5.6;;
63955;SDS011;50131;52.084;5.228;2022-07-29T05:57:05;6.5;;;5.9;;
63955;SDS011;50131;52.084;5.228;2022-07-29T05:58:52;5.6;;;5.2;;
63955;SDS011;50131;52.084;5.228;2022-07-29T06:02:26;5.7;;;4.91;;
63955;SDS011;50131;52.084;5.228;2022-07-29T06:04:12;6.3;;;5.8;;
63955;SDS011;50131;52.084;5.228;2022-07-29T06:05:59;6.0;;;5.5;;
63955;SDS011;50131;52.084;5.228;2022-07-29T06:07:45;5.9;;;5.3;;
63955;SDS011;50131;52.084;5.228;2022-07-29T06:09:32;6.5;;;5.9;;
63955;SDS011;50131;52.084;5.228;2022-07-29T06:11:19;5.8;;;5.3;;
63955;SDS011;50131;52.084;5.228;2022-07-29T06:14:51;5.5;;;5.0;;
63955;SDS011;50131;52.084;5.228;2022-07-29T06:16:37;6.0;;;5.5;;
63955;SDS011;50131;52.084;5.228;2022-07-29T06:18:24;5.9;;;5.3;;
63955;SDS011;50131;52.084;5.228;2022-07-29T06:20:10;6.8;;;6.2;;
63955;SDS011;50131;52.084;5.228;2022-07-29T06:21:57;7.3;;;6.7;;
63955;SDS011;50131;52.084;5.228;2022-07-29T06:23:45;5.9;;;5.4;;
63955;SDS011;50131;52.084;5.228;2022-07-29T06:27:20;7.8;;;7.2;;
63955;SDS011;50131;52.084;5.228;2022-07-29T06:29:06;8.2;;;7.5;;
63955;SDS011;50131;52.084;5.228;2022-07-29T06:30:54;7.0;;;4.8;;
63955;SDS011;50131;52.084;5.228;2022-07-29T06:32:42;5.3;;;3.7;;
63955;SDS011;50131;52.084;5.228;2022-07-29T06:34:28;5.3;;;3.7;;
63955;SDS011;50131;52.084;5.228;2022-07-29T06:38:01;5.11;;;4.7;;
63955;SDS011;50131;52.084;5.228;2022-07-29T06:41:00;6.6;;;6.0;;
63955;SDS011;50131;52.084;5.228;2022-07-29T06:42:46;7.0;;;4.91;;
63955;SDS011;50131;52.084;5.228;2022-07-29T06:46:20;7.8;;;7.0;;
63955;SDS011;50131;52.084;5.228;2022-07-29T06:48:08;5.8;;;5.2;;
63955;SDS011;50131;52.084;5.228;2022-07-29T06:49:55;6.7;;;6.1;;
63955;SDS011;50131;52.084;5.228;2022-07-29T06:51:41;5.9;;;5.4;;
63955;SDS011;50131;52.084;5.228;2022-07-29T06:53:28;6.4;;;4.41;;
63955;SDS011;50131;52.084;5.228;2022-07-29T06:55:16;5.6;;;5.11;;
63955;SDS011;50131;52.084;5.228;2022-07-29T06:58:48;6.7;;;6.1;;
63955;SDS011;50131;52.084;5.228;2022-07-29T07:00:34;5.7;;;5.2;;
63955;SDS011;50131;52.084;5.228;2022-07-29T07:02:21;6.8;;;6.0;;
63955;SDS011;50131;52.084;5.228;2022-07-29T07:04:09;5.0;;;4.41;;
63955;SDS011;50131;52.084;5.228;2022-07-29T07:05:56;6.9;;;6.2;;
63955;SDS011;50131;52.084;5.228;2022-07-29T07:07:43;7.4;;;6.4;;
63955;SDS011;50131;52.084;5.228;2022-07-29T07:11:15;5.3;;;4.3;;
63955;SDS011;50131;52.084;5.228;2022-07-29T07:13:01;6.2;;;5.6;;
63955;SDS011;50131;52.084;5.228;2022-07-29T07:14:49;4.91;;;3.8;;
63955;SDS011;50131;52.084;5.228;2022-07-29T07:16:35;7.5;;;6.8;;
63955;SDS011;50131;52.084;5.228;2022-07-29T07:18:22;7.0;;;6.3;;
63955;SDS011;50131;52.084;5.228;2022-07-29T07:21:55;7.3;;;6.6;;
63955;SDS011;50131;52.084;5.228;2022-07-29T07:23:42;6.6;;;6.0;;
63955;SDS011;50131;52.084;5.228;2022-07-29T07:25:28;6.2;;;5.7;;
63955;SDS011;50131;52.084;5.228;2022-07-29T07:27:14;5.5;;;4.91;;
63955;SDS011;50131;52.084;5.228;2022-07-29T07:29:00;5.6;;;5.2;;
63955;SDS011;50131;52.084;5.228;2022-07-29T07:30:47;7.4;;;6.7;;
63955;SDS011;50131;52.084;5.228;2022-07-29T07:34:21;7.9;;;6.0;;
63955;SDS011;50131;52.084;5.228;2022-07-29T07:36:07;5.9;;;5.5;;
63955;SDS011;50131;52.084;5.228;2022-07-29T07:37:53;4.2;;;3.7;;
63955;SDS011;50131;52.084;5.228;2022-07-29T07:39:41;5.4;;;4.8;;
63955;SDS011;50131;52.084;5.228;2022-07-29T07:41:27;6.5;;;5.9;;
63955;SDS011;50131;52.084;5.228;2022-07-29T07:43:14;7.1;;;6.4;;
63955;SDS011;50131;52.084;5.228;2022-07-29T07:46:46;8.1;;;7.3;;
63955;SDS011;50131;52.084;5.228;2022-07-29T07:48:34;7.5;;;6.7;;
63955;SDS011;50131;52.084;5.228;2022-07-29T07:50:21;7.0;;;6.4;;
63955;SDS011;50131;52.084;5.228;2022-07-29T07:52:07;6.4;;;5.8;;
63955;SDS011;50131;52.084;5.228;2022-07-29T07:53:54;3.7;;;3.3;;
63955;SDS011;50131;52.084;5.228;2022-07-29T07:57:29;6.7;;;6.0;;
63955;SDS011;50131;52.084;5.228;2022-07-29T07:59:15;5.7;;;5.2;;
63955;SDS011;50131;52.084;5.228;2022-07-29T08:01:02;7.6;;;7.0;;
63955;SDS011;50131;52.084;5.228;2022-07-29T08:02:49;6.8;;;6.1;;
63955;SDS011;50131;52.084;5.228;2022-07-29T08:04:36;6.0;;;5.5;;
63955;SDS011;50131;52.084;5.228;2022-07-29T08:06:24;5.8;;;5.0;;
63955;SDS011;50131;52.084;5.228;2022-07-29T08:09:57;6.4;;;5.8;;
63955;SDS011;50131;52.084;5.228;2022-07-29T08:11:43;5.8;;;4.1;;
63955;SDS011;50131;52.084;5.228;2022-07-29T08:13:30;8.81;;;8.0;;
63955;SDS011;50131;52.084;5.228;2022-07-29T08:15:16;6.4;;;5.8;;
63955;SDS011;50131;52.084;5.228;2022-07-29T08:17:03;7.7;;;7.1;;
63955;SDS011;50131;52.084;5.228;2022-07-29T08:18:49;8.0;;;7.3;;
63955;SDS011;50131;52.084;5.228;2022-07-29T08:22:23;8.5;;;7.8;;
63955;SDS011;50131;52.084;5.228;2022-07-29T08:25:13;7.1;;;6.3;;
63955;SDS011;50131;52.084;5.228;2022-07-29T08:26:59;6.3;;;5.6;;
63955;SDS011;50131;52.084;5.228;2022-07-29T08:28:46;7.4;;;6.4;;
63955;SDS011;50131;52.084;5.228;2022-07-29T08:30:33;7.1;;;6.5;;
63955;SDS011;50131;52.084;5.228;2022-07-29T08:32:20;6.8;;;6.1;;
63955;SDS011;50131;52.084;5.228;2022-07-29T08:34:09;6.3;;;5.4;;
63955;SDS011;50131;52.084;5.228;2022-07-29T08:35:55;7.3;;;5.5;;
63955;SDS011;50131;52.084;5.228;2022-07-29T08:37:42;5.5;;;5.0;;
63955;SDS011;50131;52.084;5.228;2022-07-29T08:41:15;6.5;;;5.9;;
63955;SDS011;50131;52.084;5.228;2022-07-29T08:43:04;6.4;;;5.9;;
63955;SDS011;50131;52.084;5.228;2022-07-29T08:44:53;5.3;;;4.8;;
63955;SDS011;50131;52.084;5.228;2022-07-29T08:46:41;6.1;;;5.5;;
63955;SDS011;50131;52.084;5.228;2022-07-29T08:48:28;6.1;;;5.5;;
63955;SDS011;50131;52.084;5.228;2022-07-29T08:50:15;6.2;;;5.7;;
63955;SDS011;50131;52.084;5.228;2022-07-29T08:53:49;5.7;;;4.8;;
63955;SDS011;50131;52.084;5.228;2022-07-29T08:55:38;8.5;;;6.9;;
63955;SDS011;50131;52.084;5.228;2022-07-29T08:57:26;4.7;;;4.0;;
63955;SDS011;50131;52.084;5.228;2022-07-29T08:59:13;5.2;;;4.8;;
63955;SDS011;50131;52.084;5.228;2022-07-29T09:01:01;6.0;;;5.5;;
63955;SDS011;50131;52.084;5.228;2022-07-29T09:02:49;7.0;;;6.4;;
63955;SDS011;50131;52.084;5.228;2022-07-29T09:06:31;6.7;;;5.11;;
63955;SDS011;50131;52.084;5.228;2022-07-29T09:08:23;7.2;;;6.6;;
63955;SDS011;50131;52.084;5.228;2022-07-29T09:10:10;6.9;;;6.2;;
63955;SDS011;50131;52.084;5.228;2022-07-29T09:11:56;4.7;;;4.2;;
63955;SDS011;50131;52.084;5.228;2022-07-29T09:13:46;6.9;;;6.2;;
63955;SDS011;50131;52.084;5.228;2022-07-29T09:15:32;7.1;;;6.5;;
63955;SDS011;50131;52.084;5.228;2022-07-29T09:19:26;5.9;;;5.3;;
63955;SDS011;50131;52.084;5.228;2022-07-29T09:24:15;5.5;;;5.0;;
63955;SDS011;50131;52.084;5.228;2022-07-29T09:26:04;7.5;;;6.8;;
63955;SDS011;50131;52.084;5.228;2022-07-29T09:27:51;8.1;;;7.3;;
63955;SDS011;50131;52.084;5.228;2022-07-29T09:31:32;7.3;;;5.8;;
63955;SDS011;50131;52.084;5.228;2022-07-29T09:33:20;5.4;;;4.91;;
63955;SDS011;50131;52.084;5.228;2022-07-29T09:35:16;7.8;;;7.2;;
63955;SDS011;50131;52.084;5.228;2022-07-29T09:37:05;6.4;;;5.8;;
63955;SDS011;50131;52.084;5.228;2022-07-29T09:38:56;6.8;;;6.2;;
63955;SDS011;50131;52.084;5.228;2022-07-29T09:40:43;6.3;;;5.5;;
63955;SDS011;50131;52.084;5.228;2022-07-29T09:42:42;6.6;;;6.0;;
63955;SDS011;50131;52.084;5.228;2022-07-29T09:46:34;7.4;;;6.5;;
63955;SDS011;50131;52.084;5.228;2022-07-29T09:48:22;6.9;;;6.4;;
63955;SDS011;50131;52.084;5.228;2022-07-29T09:50:10;7.6;;;6.9;;
63955;SDS011;50131;52.084;5.228;2022-07-29T09:51:59;10.0;;;8.2;;
63955;SDS011;50131;52.084;5.228;2022-07-29T09:53:50;4.41;;;4.0;;
63955;SDS011;50131;52.084;5.228;2022-07-29T09:55:52;8.1;;;6.2;;
63955;SDS011;50131;52.084;5.228;2022-07-29T09:57:39;4.3;;;3.9;;
63955;SDS011;50131;52.084;5.228;2022-07-29T09:59:26;6.6;;;6.0;;
63955;SDS011;50131;52.084;5.228;2022-07-29T10:03:00;6.3;;;5.11;;
63955;SDS011;50131;52.084;5.228;2022-07-29T10:04:47;4.61;;;4.2;;
63955;SDS011;50131;52.084;5.228;2022-07-29T10:06:34;5.0;;;4.61;;
63955;SDS011;50131;52.084;5.228;2022-07-29T10:08:41;5.11;;;4.0;;
63955;SDS011;50131;52.084;5.228;2022-07-29T10:10:29;3.9;;;3.5;;
63955;SDS011;50131;52.084;5.228;2022-07-29T10:12:18;6.9;;;4.8;;
63955;SDS011;50131;52.084;5.228;2022-07-29T10:14:04;6.4;;;4.2;;
63955;SDS011;50131;52.084;5.228;2022-07-29T10:17:39;4.91;;;3.8;;
63955;SDS011;50131;52.084;5.228;2022-07-29T10:19:27;6.1;;;3.7;;
63955;SDS011;50131;52.084;5.228;2022-07-29T10:21:15;5.11;;;4.61;;
63955;SDS011;50131;52.084;5.228;2022-07-29T10:23:02;7.2;;;3.9;;
63955;SDS011;50131;52.084;5.228;2022-07-29T10:24:50;4.3;;;3.5;;
63955;SDS011;50131;52.084;5.228;2022-07-29T10:26:41;5.2;;;4.3;;
63955;SDS011;50131;52.084;5.228;2022-07-29T10:28:29;7.2;;;4.2;;
63955;SDS011;50131;52.084;5.228;2022-07-29T10:32:09;4.41;;;4.0;;
63955;SDS011;50131;52.084;5.228;2022-07-29T10:34:07;4.3;;;3.9;;
63955;SDS011;50131;52.084;5.228;2022-07-29T10:36:07;4.3;;;3.9;;
63955;SDS011;50131;52.084;5.228;2022-07-29T10:38:15;6.0;;;4.1;;
63955;SDS011;50131;52.084;5.228;2022-07-29T10:41:50;4.5;;;3.7;;
63955;SDS011;50131;52.084;5.228;2022-07-29T10:43:56;4.3;;;3.7;;
63955;SDS011;50131;52.084;5.228;2022-07-29T10:45:47;5.0;;;3.5;;
63955;SDS011;50131;52.084;5.228;2022-07-29T10:47:36;4.91;;;4.3;;
63955;SDS011;50131;52.084;5.228;2022-07-29T10:51:10;6.0;;;3.8;;
63955;SDS011;50131;52.084;5.228;2022-07-29T10:52:57;6.5;;;3.8;;
63955;SDS011;50131;52.084;5.228;2022-07-29T10:54:47;6.5;;;3.8;;
63955;SDS011;50131;52.084;5.228;2022-07-29T10:56:36;4.41;;;3.4;;
63955;SDS011;50131;52.084;5.228;2022-07-29T10:58:23;5.5;;;4.0;;
63955;SDS011;50131;52.084;5.228;2022-07-29T11:00:27;7.0;;;4.91;;
63955;SDS011;50131;52.084;5.228;2022-07-29T11:02:50;5.9;;;4.61;;
63955;SDS011;50131;52.084;5.228;2022-07-29T11:05:08;5.3;;;4.2;;
63955;SDS011;50131;52.084;5.228;2022-07-29T11:07:08;5.9;;;5.3;;
63955;SDS011;50131;52.084;5.228;2022-07-29T11:09:27;5.9;;;4.1;;
63955;SDS011;50131;52.084;5.228;2022-07-29T11:13:55;5.2;;;4.7;;
63955;SDS011;50131;52.084;5.228;2022-07-29T11:15:57;6.6;;;4.91;;
63955;SDS011;50131;52.084;5.228;2022-07-29T11:18:03;4.91;;;4.41;;
63955;SDS011;50131;52.084;5.228;2022-07-29T11:19:51;6.6;;;4.0;;
63955;SDS011;50131;52.084;5.228;2022-07-29T11:22:31;5.8;;;5.3;;
63955;SDS011;50131;52.084;5.228;2022-07-29T11:24:21;6.6;;;6.1;;
63955;SDS011;50131;52.084;5.228;2022-07-29T11:26:13;6.8;;;6.2;;
63955;SDS011;50131;52.084;5.228;2022-07-29T11:28:08;5.6;;;3.9;;
63955;SDS011;50131;52.084;5.228;2022-07-29T11:30:04;6.2;;;2.5;;
63955;SDS011;50131;52.084;5.228;2022-07-29T11:31:54;6.4;;;2.8;;
63955;SDS011;50131;52.084;5.228;2022-07-29T11:33:56;7.0;;;3.2;;
63955;SDS011;50131;52.084;5.228;2022-07-29T11:35:43;6.4;;;5.0;;
63955;SDS011;50131;52.084;5.228;2022-07-29T11:38:23;6.5;;;4.91;;
63955;SDS011;50131;52.084;5.228;2022-07-29T11:40:13;11.0;;;7.7;;
63955;SDS011;50131;52.084;5.228;2022-07-29T11:44:54;7.2;;;4.7;;
63955;SDS011;50131;52.084;5.228;2022-07-29T11:46:43;6.4;;;5.8;;
63955;SDS011;50131;52.084;5.228;2022-07-29T11:48:32;7.4;;;5.7;;
63955;SDS011;50131;52.084;5.228;2022-07-29T11:50:28;5.9;;;5.4;;
63955;SDS011;50131;52.084;5.228;2022-07-29T11:52:18;5.5;;;5.0;;
63955;SDS011;50131;52.084;5.228;2022-07-29T11:56:00;6.5;;;5.0;;
63955;SDS011;50131;52.084;5.228;2022-07-29T11:57:47;6.5;;;4.41;;
63955;SDS011;50131;52.084;5.228;2022-07-29T11:59:38;5.9;;;5.3;;
63955;SDS011;50131;52.084;5.228;2022-07-29T12:01:26;7.0;;;6.3;;
63955;SDS011;50131;52.084;5.228;2022-07-29T12:03:22;8.0;;;5.8;;
63955;SDS011;50131;52.084;5.228;2022-07-29T12:05:10;6.2;;;5.6;;
63955;SDS011;50131;52.084;5.228;2022-07-29T12:06:57;6.6;;;4.7;;
63955;SDS011;50131;52.084;5.228;2022-07-29T12:10:30;5.5;;;5.0;;
63955;SDS011;50131;52.084;5.228;2022-07-29T12:12:18;6.2;;;5.3;;
63955;SDS011;50131;52.084;5.228;2022-07-29T12:14:05;7.5;;;5.4;;
63955;SDS011;50131;52.084;5.228;2022-07-29T12:15:52;4.5;;;3.9;;
63955;SDS011;50131;52.084;5.228;2022-07-29T12:17:39;5.6;;;4.3;;
63955;SDS011;50131;52.084;5.228;2022-07-29T12:19:25;5.0;;;4.1;;
63955;SDS011;50131;52.084;5.228;2022-07-29T12:23:04;6.0;;;3.6;;
63955;SDS011;50131;52.084;5.228;2022-07-29T12:24:52;6.2;;;4.5;;
63955;SDS011;50131;52.084;5.228;2022-07-29T12:26:48;6.0;;;4.5;;
63955;SDS011;50131;52.084;5.228;2022-07-29T12:28:36;5.0;;;4.5;;
63955;SDS011;50131;52.084;5.228;2022-07-29T12:30:23;6.3;;;4.1;;
63955;SDS011;50131;52.084;5.228;2022-07-29T12:32:21;6.4;;;4.5;;
63955;SDS011;50131;52.084;5.228;2022-07-29T12:34:09;8.2;;;5.0;;
63955;SDS011;50131;52.084;5.228;2022-07-29T12:37:45;5.3;;;4.1;;
63955;SDS011;50131;52.084;5.228;2022-07-29T12:39:34;5.8;;;4.7;;
63955;SDS011;50131;52.084;5.228;2022-07-29T12:41:21;5.9;;;5.11;;
63955;SDS011;50131;52.084;5.228;2022-07-29T12:43:10;5.8;;;4.91;;
63955;SDS011;50131;52.084;5.228;2022-07-29T12:44:57;4.8;;;4.3;;
63955;SDS011;50131;52.084;5.228;2022-07-29T12:47:00;5.6;;;5.0;;
63955;SDS011;50131;52.084;5.228;2022-07-29T12:48:50;5.7;;;5.2;;
63955;SDS011;50131;52.084;5.228;2022-07-29T12:52:42;6.3;;;5.7;;
63955;SDS011;50131;52.084;5.228;2022-07-29T12:54:30;6.3;;;4.61;;
63955;SDS011;50131;52.084;5.228;2022-07-29T12:56:16;6.9;;;4.91;;
63955;SDS011;50131;52.084;5.228;2022-07-29T12:58:03;5.7;;;5.0;;
63955;SDS011;50131;52.084;5.228;2022-07-29T12:59:59;5.3;;;2.8;;
63955;SDS011;50131;52.084;5.228;2022-07-29T13:01:49;7.3;;;3.6;;
63955;SDS011;50131;52.084;5.228;2022-07-29T13:03:43;6.3;;;3.0;;
63955;SDS011;50131;52.084;5.228;2022-07-29T13:05:40;4.5;;;2.9;;
63955;SDS011;50131;52.084;5.228;2022-07-29T13:07:30;5.4;;;2.8;;
63955;SDS011;50131;52.084;5.228;2022-07-29T13:11:06;4.3;;;2.4;;
63955;SDS011;50131;52.084;5.228;2022-07-29T13:13:00;4.0;;;2.5;;
63955;SDS011;50131;52.084;5.228;2022-07-29T13:15:12;6.2;;;3.3;;